createdAt,value
2022-10-20T00:01:25.431Z,7.00
2022-10-20T00:03:53.544Z,6.20
2022-10-20T00:06:29.872Z,6.33
2022-10-20T00:09:00.683Z,6.53
2022-10-20T00:11:29.108Z,6.83
2022-10-20T00:13:57.750Z,6.37
2022-10-20T00:16:27.270Z,5.47
2022-10-20T00:18:56.369Z,6.40
2022-10-20T00:21:26.885Z,5.97
2022-10-20T00:23:53.973Z,5.63
2022-10-20T00:26:26.017Z,5.83
2022-10-20T00:28:54.056Z,5.97
2022-10-20T00:31:23.319Z,6.13
2022-10-20T00:33:49.953Z,6.03
2022-10-20T00:36:20.279Z,5.63
2022-10-20T00:38:46.980Z,5.63
2022-10-20T00:41:20.295Z,5.73
2022-10-20T00:44:43.684Z,6.10
2022-10-20T00:48:16.685Z,5.97
2022-10-20T00:50:50.121Z,6.50
2022-10-20T00:53:23.700Z,5.83
2022-10-20T00:55:53.933Z,6.10
2022-10-20T00:58:21.038Z,5.73
2022-10-20T01:00:55.301Z,6.50
2022-10-20T01:03:35.877Z,6.33
2022-10-20T01:06:03.745Z,6.10
2022-10-20T01:08:30.328Z,5.97
2022-10-20T01:11:17.912Z,5.83
2022-10-20T01:14:25.209Z,6.60
2022-10-20T01:17:46.267Z,6.57
2022-10-20T01:22:14.466Z,5.97
2022-10-20T01:27:35.457Z,5.87
2022-10-20T01:30:23.215Z,5.60
2022-10-20T01:33:53.807Z,6.20
2022-10-20T01:36:38.725Z,5.73
2022-10-20T01:39:37.903Z,5.93
2022-10-20T01:42:13.769Z,5.97
2022-10-20T01:44:42.390Z,5.73
2022-10-20T01:47:11.506Z,5.40
2022-10-20T01:49:45.956Z,5.77
2022-10-20T01:52:13.167Z,5.23
2022-10-20T01:54:39.911Z,5.37
2022-10-20T01:59:07.673Z,5.70
2022-10-20T02:06:33.045Z,4.80
2022-10-20T02:09:06.381Z,4.40
2022-10-20T02:12:03.789Z,4.47
2022-10-20T02:14:32.521Z,4.70
2022-10-20T02:17:06.697Z,4.67
2022-10-20T02:19:41.841Z,5.30
2022-10-20T02:22:12.484Z,4.40
2022-10-20T02:24:42.192Z,4.53
2022-10-20T02:27:27.730Z,4.47
2022-10-20T02:30:09.950Z,4.37
2022-10-20T02:32:40.018Z,4.43
2022-10-20T02:35:14.191Z,4.33
2022-10-20T02:37:40.953Z,4.47
2022-10-20T02:40:08.354Z,4.57
2022-10-20T02:42:35.057Z,5.07
2022-10-20T02:45:01.918Z,4.50
2022-10-20T02:47:28.399Z,4.57
2022-10-20T02:49:54.885Z,4.33
2022-10-20T02:52:21.377Z,4.70
2022-10-20T02:54:47.831Z,4.70
2022-10-20T02:57:14.307Z,4.23
2022-10-20T02:59:40.779Z,4.93
2022-10-20T03:02:07.309Z,4.33
2022-10-20T03:04:33.838Z,5.00
2022-10-20T03:07:00.328Z,4.67
2022-10-20T03:09:26.817Z,4.87
2022-10-20T03:11:53.404Z,4.30
2022-10-20T03:14:19.875Z,4.40
2022-10-20T03:16:46.383Z,4.57
2022-10-20T03:19:12.838Z,4.70
2022-10-20T03:21:39.337Z,4.20
2022-10-20T03:24:06.012Z,4.73
2022-10-20T03:26:32.705Z,4.60
2022-10-20T03:28:59.183Z,4.70
2022-10-20T03:31:26.011Z,4.47
2022-10-20T03:33:52.513Z,4.43
2022-10-20T03:36:18.973Z,4.80
2022-10-20T03:38:45.487Z,4.00
2022-10-20T03:41:12.570Z,4.30
2022-10-20T03:43:39.979Z,4.27
2022-10-20T03:46:09.914Z,4.73
2022-10-20T03:48:37.496Z,4.70
2022-10-20T03:51:05.661Z,4.50
2022-10-20T03:53:32.419Z,4.40
2022-10-20T03:55:58.895Z,4.67
2022-10-20T03:58:25.368Z,4.10
2022-10-20T04:00:52.616Z,4.50
2022-10-20T04:03:19.069Z,4.13
2022-10-20T04:05:45.536Z,4.47
2022-10-20T04:08:12.153Z,4.57
2022-10-20T04:10:38.688Z,4.77
2022-10-20T04:13:05.170Z,4.10
2022-10-20T04:15:31.777Z,4.47
2022-10-20T04:17:58.682Z,4.60
2022-10-20T04:20:25.174Z,4.57
2022-10-20T04:22:51.695Z,4.27
2022-10-20T04:25:18.324Z,4.43
2022-10-20T04:27:44.794Z,3.73
2022-10-20T04:30:11.626Z,4.63
2022-10-20T04:32:38.088Z,4.60
2022-10-20T04:35:05.408Z,4.83
2022-10-20T04:37:31.901Z,4.20
2022-10-20T04:39:58.346Z,4.43
2022-10-20T04:42:24.882Z,4.47
2022-10-20T04:44:51.405Z,5.43
2022-10-20T04:47:17.946Z,4.83
2022-10-20T04:49:44.404Z,5.33
2022-10-20T04:52:10.891Z,4.63
2022-10-20T04:54:37.485Z,5.10
2022-10-20T04:57:05.419Z,4.80
2022-10-20T04:59:32.000Z,5.13
2022-10-20T05:01:58.565Z,4.30
2022-10-20T05:04:25.213Z,5.00
2022-10-20T05:06:51.700Z,5.00
2022-10-20T05:09:18.989Z,4.57
2022-10-20T05:11:45.665Z,4.40
2022-10-20T05:14:12.189Z,4.70
2022-10-20T05:16:38.655Z,4.53
2022-10-20T05:19:05.416Z,4.40
2022-10-20T05:21:33.111Z,4.90
2022-10-20T05:24:03.193Z,4.50
2022-10-20T05:26:34.180Z,4.73
2022-10-20T05:29:04.250Z,4.93
2022-10-20T05:31:30.807Z,5.07
2022-10-20T05:33:59.724Z,5.53
2022-10-20T05:36:27.143Z,5.20
2022-10-20T05:38:55.810Z,5.30
2022-10-20T05:41:28.372Z,4.63
2022-10-20T05:44:01.307Z,5.87
2022-10-20T05:46:31.403Z,5.43
2022-10-20T05:49:02.050Z,5.40
2022-10-20T05:51:33.649Z,6.03
2022-10-20T05:54:00.423Z,6.33
2022-10-20T05:56:28.973Z,5.80
2022-10-20T05:58:57.001Z,6.43
2022-10-20T06:01:39.165Z,5.70
2022-10-20T06:04:09.532Z,6.20
2022-10-20T06:06:36.326Z,6.17
2022-10-20T06:09:07.798Z,6.20
2022-10-20T06:11:39.194Z,7.20
2022-10-20T06:14:08.114Z,7.30
2022-10-20T06:16:35.069Z,7.20
2022-10-20T06:19:02.191Z,7.53
2022-10-20T06:21:31.936Z,7.23
2022-10-20T06:24:04.077Z,6.37
2022-10-20T06:26:32.778Z,6.53
2022-10-20T06:29:04.218Z,6.97
2022-10-20T06:31:39.331Z,6.43
2022-10-20T06:34:09.072Z,6.73
2022-10-20T06:36:38.169Z,7.10
2022-10-20T06:39:08.023Z,7.03
2022-10-20T06:41:35.332Z,7.13
2022-10-20T06:44:02.227Z,6.90
2022-10-20T06:46:35.633Z,6.63
2022-10-20T06:49:05.336Z,6.80
2022-10-20T06:51:34.713Z,6.10
2022-10-20T06:54:01.443Z,5.77
2022-10-20T06:56:30.503Z,7.27
2022-10-20T06:58:58.569Z,6.73
2022-10-20T07:01:35.086Z,6.33
2022-10-20T07:04:14.353Z,6.20
2022-10-20T07:06:44.331Z,5.93
2022-10-20T07:09:19.995Z,5.90
2022-10-20T07:11:52.077Z,5.00
2022-10-20T07:14:19.917Z,5.20
2022-10-20T07:16:46.450Z,5.20
2022-10-20T07:19:13.002Z,5.33
2022-10-20T07:21:41.731Z,5.33
2022-10-20T07:24:12.360Z,5.40
2022-10-20T07:26:40.894Z,5.30
2022-10-20T07:29:08.072Z,5.17
2022-10-20T07:31:44.530Z,5.03
2022-10-20T07:34:24.538Z,5.77
2022-10-20T07:36:53.627Z,5.20
2022-10-20T07:39:20.310Z,4.90
2022-10-20T07:41:47.339Z,5.17
2022-10-20T07:44:14.050Z,5.77
2022-10-20T07:46:40.524Z,5.37
2022-10-20T07:49:31.402Z,5.87
2022-10-20T07:52:09.176Z,5.83
2022-10-20T07:54:35.726Z,5.10
2022-10-20T07:57:02.232Z,5.97
2022-10-20T07:59:29.369Z,5.47
2022-10-20T08:01:56.302Z,6.33
2022-10-20T08:04:25.599Z,5.80
2022-10-20T08:06:52.124Z,5.50
2022-10-20T08:09:18.615Z,5.80
2022-10-20T08:11:45.116Z,6.37
2022-10-20T08:14:11.619Z,5.93
2022-10-20T08:16:40.562Z,5.53
2022-10-20T08:19:27.815Z,5.03
2022-10-20T08:21:54.310Z,5.40
2022-10-20T08:24:21.397Z,5.27
2022-10-20T08:26:47.882Z,5.80
2022-10-20T08:29:14.365Z,4.97
2022-10-20T08:31:42.791Z,4.63
2022-10-20T08:34:09.341Z,4.97
2022-10-20T08:36:38.692Z,5.07
2022-10-20T08:39:06.477Z,5.20
2022-10-20T08:42:02.510Z,5.20
2022-10-20T08:44:36.008Z,5.33
2022-10-20T08:47:21.325Z,4.63
2022-10-20T08:49:47.823Z,4.63
2022-10-20T08:52:16.657Z,4.80
2022-10-20T08:54:43.475Z,4.93
2022-10-20T08:57:28.478Z,4.60
2022-10-20T09:00:12.129Z,4.70
2022-10-20T09:02:39.549Z,6.10
2022-10-20T09:05:09.611Z,5.77
2022-10-20T09:07:39.567Z,5.93
2022-10-20T09:11:35.903Z,5.80
2022-10-20T09:14:02.853Z,5.07
2022-10-20T09:16:40.844Z,4.80
2022-10-20T09:19:27.856Z,4.93
2022-10-20T09:22:05.803Z,5.17
2022-10-20T09:24:35.904Z,3.83
2022-10-20T09:29:38.205Z,3.57
2022-10-20T09:32:49.347Z,5.93
2022-10-20T09:35:50.489Z,3.00
2022-10-20T09:38:26.928Z,3.27
2022-10-20T09:41:24.567Z,3.17
2022-10-20T09:44:01.531Z,3.70
2022-10-20T09:46:43.272Z,4.45
2022-10-20T09:50:00.849Z,4.17
2022-10-20T09:52:40.193Z,4.28
2022-10-20T09:57:08.231Z,4.40
2022-10-20T09:59:46.638Z,4.20
2022-10-20T10:02:31.887Z,4.12
2022-10-20T10:05:19.176Z,4.12
2022-10-20T10:07:58.433Z,4.67
2022-10-20T10:10:29.456Z,4.70
2022-10-20T10:13:00.466Z,4.60
2022-10-20T10:15:36.100Z,4.72
2022-10-20T10:18:15.385Z,4.65
2022-10-20T10:20:42.006Z,4.37
2022-10-20T10:23:33.323Z,4.60
2022-10-20T10:26:02.069Z,4.20
2022-10-20T10:28:39.511Z,4.30
2022-10-20T10:31:21.023Z,3.97
2022-10-20T10:33:52.093Z,4.55
2022-10-20T10:36:34.155Z,4.55
2022-10-20T10:39:03.411Z,3.65
2022-10-20T10:42:41.107Z,3.58
2022-10-20T10:45:55.813Z,5.32
2022-10-20T10:52:04.321Z,5.72
2022-10-20T10:56:32.892Z,6.20
2022-10-20T10:59:28.105Z,5.30
2022-10-20T11:07:16.193Z,4.43
2022-10-20T11:16:55.475Z,5.32
2022-10-20T11:20:39.154Z,5.07
2022-10-20T11:24:48.636Z,5.17
2022-10-20T11:27:25.123Z,5.12
2022-10-20T11:30:07.739Z,5.75
2022-10-20T11:34:17.884Z,6.22
2022-10-20T11:36:59.931Z,6.00
2022-10-20T11:40:06.015Z,5.60
2022-10-20T11:45:41.105Z,5.62
2022-10-20T11:49:08.711Z,5.47
2022-10-20T11:58:07.438Z,5.82
2022-10-20T12:05:38.097Z,6.30
2022-10-20T12:11:11.366Z,5.28
2022-10-20T12:15:23.540Z,3.75
2022-10-20T12:17:52.986Z,4.03
2022-10-20T12:21:09.207Z,4.05
2022-10-20T12:28:40.589Z,4.97
2022-10-20T12:31:07.291Z,5.65
2022-10-20T12:36:37.691Z,4.90
2022-10-20T12:39:17.405Z,5.25
2022-10-20T12:42:07.601Z,5.80
2022-10-20T12:44:43.664Z,5.70
2022-10-20T12:47:21.818Z,5.82
2022-10-20T12:50:19.211Z,5.93
2022-10-20T12:52:46.705Z,5.90
2022-10-20T12:56:20.943Z,5.62
2022-10-20T13:01:29.444Z,5.37
2022-10-20T13:03:55.909Z,5.07
2022-10-20T13:06:44.044Z,4.60
2022-10-20T13:09:20.850Z,4.80
2022-10-20T13:12:00.085Z,5.20
2022-10-20T13:14:53.510Z,5.00
2022-10-20T13:17:35.126Z,4.57
2022-10-20T13:22:42.246Z,5.47
2022-10-20T13:25:37.254Z,4.85
2022-10-20T13:28:32.971Z,5.55
2022-10-20T13:31:39.592Z,5.77
2022-10-20T13:34:28.118Z,4.97
2022-10-20T13:40:45.831Z,5.18
2022-10-20T13:43:48.207Z,4.75
2022-10-20T13:46:52.229Z,5.05
2022-10-20T13:51:22.623Z,4.85
2022-10-20T13:53:55.058Z,4.60
2022-10-20T13:56:40.729Z,5.00
2022-10-20T13:59:30.023Z,5.47
2022-10-20T14:02:21.007Z,5.53
2022-10-20T14:04:47.532Z,4.45
2022-10-20T14:07:15.261Z,4.40
2022-10-20T14:09:45.954Z,4.80
2022-10-20T14:12:25.239Z,5.23
2022-10-20T14:15:01.483Z,4.80
2022-10-20T14:17:28.698Z,4.80
2022-10-20T14:20:22.280Z,5.27
2022-10-20T14:22:52.882Z,4.97
2022-10-20T14:25:21.332Z,5.17
2022-10-20T14:27:50.617Z,5.03
2022-10-20T14:30:19.068Z,5.27
2022-10-20T14:32:48.893Z,5.10
2022-10-20T14:35:50.741Z,5.23
2022-10-20T14:38:38.273Z,5.00
2022-10-20T14:41:08.136Z,5.03
2022-10-20T14:43:45.092Z,4.60
2022-10-20T14:46:34.414Z,5.73
2022-10-20T14:49:02.046Z,5.27
2022-10-20T14:51:53.256Z,5.03
2022-10-20T14:54:40.955Z,5.00
2022-10-20T14:57:43.220Z,6.17
2022-10-20T15:00:35.487Z,4.82
2022-10-20T15:03:06.363Z,5.18
2022-10-20T15:05:42.896Z,4.93
2022-10-20T15:08:28.498Z,5.47
2022-10-20T15:10:56.289Z,4.97
2022-10-20T15:13:30.563Z,5.50
2022-10-20T15:16:01.111Z,5.85
2022-10-20T15:18:29.791Z,5.07
2022-10-20T15:20:56.537Z,4.97
2022-10-20T15:23:28.314Z,5.57
2022-10-20T15:26:09.432Z,4.75
2022-10-20T15:28:53.657Z,4.27
2022-10-20T15:31:27.085Z,4.90
2022-10-20T15:33:56.590Z,4.87
2022-10-20T15:36:32.978Z,4.95
2022-10-20T15:39:00.124Z,4.37
2022-10-20T15:41:30.846Z,4.90
2022-10-20T15:44:20.695Z,5.32
2022-10-20T15:46:49.613Z,5.67
2022-10-20T15:49:16.408Z,6.77
2022-10-20T15:51:46.469Z,6.23
2022-10-20T15:54:20.942Z,4.63
2022-10-20T15:56:47.727Z,5.50
2022-10-20T15:59:14.261Z,5.90
2022-10-20T16:01:40.794Z,6.90
2022-10-20T16:04:19.207Z,6.47
2022-10-20T16:06:46.370Z,5.47
2022-10-20T16:09:15.850Z,5.27
2022-10-20T16:11:43.332Z,5.10
2022-10-20T16:14:09.969Z,5.10
2022-10-20T16:16:36.467Z,5.43
2022-10-20T16:19:03.557Z,5.07
2022-10-20T16:21:30.120Z,4.93
2022-10-20T16:23:56.604Z,5.60
2022-10-20T16:26:23.093Z,4.43
2022-10-20T16:28:49.639Z,5.07
2022-10-20T16:31:16.907Z,5.13
2022-10-20T16:33:44.011Z,4.93
2022-10-20T16:36:15.358Z,5.07
2022-10-20T16:38:42.887Z,4.63
2022-10-20T16:41:13.598Z,5.70
2022-10-20T16:43:44.002Z,5.30
2022-10-20T16:46:13.180Z,5.10
2022-10-20T16:48:42.544Z,5.07
2022-10-20T16:51:12.481Z,5.30
2022-10-20T16:53:39.116Z,5.10
2022-10-20T16:56:07.009Z,5.87
2022-10-20T16:58:33.632Z,7.23
2022-10-20T17:01:10.977Z,9.53
2022-10-20T17:06:10.290Z,9.33
2022-10-20T17:08:38.257Z,9.00
2022-10-20T17:11:18.306Z,9.70
2022-10-20T17:13:44.973Z,8.10
2022-10-20T17:16:30.549Z,7.33
2022-10-20T17:18:59.808Z,7.63
2022-10-20T17:21:28.222Z,7.93
2022-10-20T17:23:55.686Z,7.43
2022-10-20T17:26:25.808Z,7.70
2022-10-20T17:28:59.442Z,7.83
2022-10-20T17:31:26.693Z,8.70
2022-10-20T17:33:54.917Z,8.87
2022-10-20T17:36:25.394Z,8.63
2022-10-20T17:38:59.973Z,11.07
2022-10-20T17:41:28.691Z,10.03
2022-10-20T17:43:57.895Z,10.00
2022-10-20T17:46:24.389Z,11.30
2022-10-20T17:48:50.876Z,10.40
2022-10-20T17:51:24.023Z,10.20
2022-10-20T17:53:52.771Z,10.30
2022-10-20T17:56:26.907Z,10.57
2022-10-20T17:58:54.431Z,10.17
2022-10-20T18:01:26.180Z,9.00
2022-10-20T18:04:26.031Z,9.73
2022-10-20T18:06:52.491Z,10.47
2022-10-20T18:09:19.475Z,8.47
2022-10-20T18:11:49.545Z,8.40
2022-10-20T18:14:16.324Z,8.27
2022-10-20T18:16:43.370Z,8.20
2022-10-20T18:19:15.806Z,8.20
2022-10-20T18:21:42.678Z,7.83
2022-10-20T18:24:14.083Z,8.90
2022-10-20T18:26:40.852Z,7.73
2022-10-20T18:29:10.662Z,7.27
2022-10-20T18:31:40.682Z,7.37
2022-10-20T18:34:12.668Z,8.50
2022-10-20T18:36:43.417Z,7.53
2022-10-20T18:39:13.337Z,8.17
2022-10-20T18:41:42.636Z,8.43
2022-10-20T18:44:15.555Z,7.73
2022-10-20T18:46:42.823Z,7.80
2022-10-20T18:49:13.654Z,8.30
2022-10-20T18:51:40.896Z,7.90
2022-10-20T18:54:08.525Z,10.20
2022-10-20T18:56:35.882Z,8.93
2022-10-20T18:59:07.325Z,9.57
2022-10-20T19:01:37.354Z,8.23
2022-10-20T19:04:05.511Z,9.37
2022-10-20T19:06:40.351Z,10.53
2022-10-20T19:09:19.909Z,11.93
2022-10-20T19:14:15.842Z,10.00
2022-10-20T19:16:46.269Z,10.10
2022-10-20T19:19:12.941Z,10.17
2022-10-20T19:21:39.518Z,10.63
2022-10-20T19:24:14.276Z,10.83
2022-10-20T19:26:57.414Z,10.40
2022-10-20T19:29:29.755Z,10.93
2022-10-20T19:32:00.300Z,10.83
2022-10-20T19:34:44.876Z,11.23
2022-10-20T19:37:14.299Z,11.33
2022-10-20T19:39:42.117Z,10.93
2022-10-20T19:42:09.778Z,10.50
2022-10-20T19:44:36.681Z,9.70
2022-10-20T19:47:04.676Z,9.10
2022-10-20T19:49:31.232Z,10.00
2022-10-20T19:51:57.836Z,10.57
2022-10-20T19:54:24.536Z,11.43
2022-10-20T19:56:51.039Z,10.40
2022-10-20T19:59:17.506Z,9.40
2022-10-20T20:01:44.112Z,9.60
2022-10-20T20:04:10.588Z,9.50
2022-10-20T20:06:37.427Z,10.30
2022-10-20T20:09:08.331Z,9.37
2022-10-20T20:11:36.942Z,8.27
2022-10-20T20:14:12.682Z,9.90
2022-10-20T20:16:39.688Z,9.03
2022-10-20T20:19:06.323Z,8.27
2022-10-20T20:21:33.120Z,8.17
2022-10-20T20:24:03.014Z,7.77
2022-10-20T20:26:35.346Z,8.50
2022-10-20T20:29:01.978Z,8.13
2022-10-20T20:31:30.615Z,7.80
2022-10-20T20:33:57.323Z,7.70
2022-10-20T20:36:26.001Z,8.10
2022-10-20T20:38:55.038Z,8.30
2022-10-20T20:41:25.356Z,8.17
2022-10-20T20:43:51.960Z,8.63
2022-10-20T20:46:21.588Z,7.97
2022-10-20T20:48:48.735Z,7.87
2022-10-20T20:51:15.639Z,7.70
2022-10-20T20:53:42.399Z,7.73
2022-10-20T20:56:13.228Z,7.10
2022-10-20T20:58:41.403Z,7.87
2022-10-20T21:01:16.438Z,7.83
2022-10-20T21:03:43.352Z,8.23
2022-10-20T21:06:22.983Z,8.10
2022-10-20T21:08:56.244Z,8.47
2022-10-20T21:11:26.110Z,8.53
2022-10-20T21:13:55.399Z,8.70
2022-10-20T21:16:29.005Z,8.20
2022-10-20T21:18:59.753Z,8.73
2022-10-20T21:21:30.302Z,7.90
2022-10-20T21:23:58.522Z,7.97
2022-10-20T21:26:26.136Z,8.23
2022-10-20T21:28:53.278Z,8.00
2022-10-20T21:31:26.712Z,8.77
2022-10-20T21:33:57.645Z,10.80
2022-10-20T21:36:27.917Z,9.77
2022-10-20T21:38:54.990Z,11.20
2022-10-20T21:41:29.131Z,8.73
2022-10-20T21:43:58.657Z,9.07
2022-10-20T21:46:29.107Z,10.70
2022-10-20T21:49:03.521Z,11.23
2022-10-20T21:51:37.134Z,10.67
2022-10-20T21:54:07.488Z,10.90
2022-10-20T21:56:36.464Z,10.73
2022-10-20T21:59:11.612Z,13.00
2022-10-20T22:01:38.093Z,14.80
2022-10-20T22:04:04.616Z,12.07
2022-10-20T22:06:31.072Z,10.93
2022-10-20T22:08:59.043Z,10.67
2022-10-20T22:11:39.285Z,11.07
2022-10-20T22:14:06.720Z,10.87
2022-10-20T22:16:37.607Z,11.50
2022-10-20T22:19:13.108Z,12.07
2022-10-20T22:21:43.331Z,10.83
2022-10-20T22:24:10.779Z,10.27
2022-10-20T22:26:37.548Z,10.23
2022-10-20T22:29:05.868Z,10.30
2022-10-20T22:31:32.540Z,9.90
2022-10-20T22:33:59.318Z,10.10
2022-10-20T22:36:26.751Z,9.80
2022-10-20T22:38:53.480Z,10.57
2022-10-20T22:41:20.104Z,11.20
2022-10-20T22:43:46.579Z,10.90
2022-10-20T22:46:15.015Z,10.77
2022-10-20T22:48:41.865Z,9.50
2022-10-20T22:51:10.117Z,9.00
2022-10-20T22:53:37.586Z,9.97
2022-10-20T22:56:16.432Z,9.43
2022-10-20T22:58:43.541Z,10.07
2022-10-20T23:01:15.309Z,9.00
2022-10-20T23:03:42.070Z,10.60
2022-10-20T23:06:14.572Z,10.07
2022-10-20T23:08:48.504Z,9.83
2022-10-20T23:11:16.386Z,9.53
2022-10-20T23:13:44.051Z,9.00
2022-10-20T23:16:11.336Z,8.97
2022-10-20T23:18:38.534Z,9.83
2022-10-20T23:21:06.196Z,8.60
2022-10-20T23:23:36.576Z,9.90
2022-10-20T23:26:04.946Z,9.90
2022-10-20T23:28:32.445Z,9.77
2022-10-20T23:31:15.036Z,8.60
2022-10-20T23:33:44.627Z,9.73
2022-10-20T23:36:13.932Z,9.37
2022-10-20T23:38:41.264Z,8.60
2022-10-20T23:41:08.179Z,8.27
2022-10-20T23:46:03.118Z,8.10
2022-10-20T23:48:29.944Z,8.97
2022-10-20T23:50:57.471Z,8.13
2022-10-20T23:53:24.671Z,8.30
2022-10-20T23:55:51.152Z,8.20
2022-10-20T23:58:21.798Z,8.40
